createdAt,value
2022-11-29T00:00:49.981Z,99045.31
2022-11-29T00:03:16.424Z,99043.56
2022-11-29T00:05:43.232Z,99045.94
2022-11-29T00:08:09.568Z,99044.97
2022-11-29T00:10:37.270Z,99037.06
2022-11-29T00:13:04.364Z,99041.53
2022-11-29T00:15:30.802Z,99028.97
2022-11-29T00:17:57.086Z,99041.72
2022-11-29T00:20:23.727Z,99037.13
2022-11-29T00:22:50.121Z,99039.16
2022-11-29T00:25:16.479Z,99031.41
2022-11-29T00:27:42.823Z,99029.03
2022-11-29T00:30:09.834Z,99031.94
2022-11-29T00:32:36.461Z,99041.03
2022-11-29T00:35:09.333Z,99040.16
2022-11-29T00:37:36.165Z,99032.38
2022-11-29T00:40:03.835Z,99033.44
2022-11-29T00:42:30.535Z,99031.16
2022-11-29T00:44:57.166Z,99026.25
2022-11-29T00:47:23.790Z,99023.38
2022-11-29T00:49:50.154Z,99026.41
2022-11-29T00:52:16.472Z,99021.00
2022-11-29T00:54:43.233Z,99018.19
2022-11-29T00:57:09.793Z,99021.78
2022-11-29T00:59:36.129Z,99015.09
2022-11-29T01:02:02.515Z,99025.63
2022-11-29T01:04:28.949Z,99026.25
2022-11-29T01:06:55.485Z,99020.88
2022-11-29T01:09:21.798Z,99025.44
2022-11-29T01:11:49.629Z,99025.50
2022-11-29T01:14:16.138Z,99030.91
2022-11-29T01:16:42.483Z,99023.47
2022-11-29T01:19:08.975Z,99031.78
2022-11-29T01:21:35.643Z,99039.88
2022-11-29T01:24:02.312Z,99033.44
2022-11-29T01:26:30.704Z,99035.22
2022-11-29T01:28:58.749Z,99036.19
2022-11-29T01:31:27.841Z,99040.56
2022-11-29T01:33:55.984Z,99049.03
2022-11-29T01:36:23.523Z,99039.41
2022-11-29T01:38:50.634Z,99044.72
2022-11-29T01:41:21.076Z,99051.16
2022-11-29T01:44:07.370Z,99053.34
2022-11-29T01:46:40.143Z,99051.56
2022-11-29T01:49:23.209Z,99056.25
2022-11-29T01:52:19.819Z,99057.28
2022-11-29T01:54:52.329Z,99050.94
2022-11-29T01:57:20.583Z,99049.78
2022-11-29T01:59:51.080Z,99047.88
2022-11-29T02:02:29.305Z,99048.41
2022-11-29T02:04:58.099Z,99041.31
2022-11-29T02:07:24.519Z,99049.31
2022-11-29T02:09:50.933Z,99047.34
2022-11-29T02:12:37.994Z,99054.69
2022-11-29T02:15:19.276Z,99049.94
2022-11-29T02:17:59.902Z,99043.66
2022-11-29T02:21:03.413Z,99033.59
2022-11-29T02:23:38.979Z,99050.50
2022-11-29T02:26:43.215Z,99047.81
2022-11-29T02:29:21.961Z,99050.25
2022-11-29T02:32:19.305Z,99056.88
2022-11-29T02:35:01.132Z,99049.28
2022-11-29T02:37:48.565Z,99060.72
2022-11-29T02:40:30.518Z,99047.09
2022-11-29T02:43:17.401Z,99047.72
2022-11-29T02:45:53.789Z,99058.25
2022-11-29T02:48:29.077Z,99062.41
2022-11-29T02:51:07.018Z,99052.19
2022-11-29T02:53:44.346Z,99058.56
2022-11-29T02:56:20.809Z,99053.72
2022-11-29T02:58:54.201Z,99055.88
2022-11-29T03:01:28.719Z,99059.34
2022-11-29T03:04:04.389Z,99059.66
2022-11-29T03:06:51.282Z,99065.78
2022-11-29T03:09:34.343Z,99062.34
2022-11-29T03:12:17.375Z,99052.56
2022-11-29T03:15:02.546Z,99068.09
2022-11-29T03:17:48.408Z,99067.66
2022-11-29T03:20:26.189Z,99073.19
2022-11-29T03:23:20.682Z,99073.25
2022-11-29T03:26:14.502Z,99075.94
2022-11-29T03:28:56.552Z,99083.72
2022-11-29T03:31:32.004Z,99081.09
2022-11-29T03:34:24.473Z,99078.50
2022-11-29T03:37:00.972Z,99086.47
2022-11-29T03:39:42.702Z,99088.06
2022-11-29T03:42:16.311Z,99087.31
2022-11-29T03:44:51.016Z,99086.56
2022-11-29T03:47:24.223Z,99082.25
2022-11-29T03:50:03.154Z,99092.47
2022-11-29T03:52:53.683Z,99085.53
2022-11-29T03:55:50.760Z,99096.31
2022-11-29T03:58:34.363Z,99092.63
2022-11-29T04:01:03.666Z,99090.31
2022-11-29T04:03:59.226Z,99093.84
2022-11-29T04:06:44.496Z,99092.06
2022-11-29T04:09:26.231Z,99094.69
2022-11-29T04:12:00.119Z,99088.31
2022-11-29T04:14:51.513Z,99097.22
2022-11-29T04:17:34.505Z,99097.88
2022-11-29T04:20:22.245Z,99092.78
2022-11-29T04:23:21.910Z,99100.09
2022-11-29T04:25:57.344Z,99095.94
2022-11-29T04:28:57.728Z,99096.84
2022-11-29T04:31:51.320Z,99096.41
2022-11-29T04:34:37.856Z,99102.47
2022-11-29T04:37:34.230Z,99104.59
2022-11-29T04:40:20.226Z,99101.47
2022-11-29T04:43:14.311Z,99099.75
2022-11-29T04:46:12.088Z,99112.06
2022-11-29T04:49:00.184Z,99108.53
2022-11-29T04:52:03.327Z,99114.69
2022-11-29T04:54:37.502Z,99114.53
2022-11-29T04:57:24.806Z,99117.97
2022-11-29T05:00:07.110Z,99117.97
2022-11-29T05:02:48.595Z,99118.06
2022-11-29T05:06:00.729Z,99122.53
2022-11-29T05:09:08.645Z,99124.50
2022-11-29T05:11:47.022Z,99124.28
2022-11-29T05:14:26.854Z,99125.22
2022-11-29T05:17:14.870Z,99121.47
2022-11-29T05:19:59.578Z,99130.22
2022-11-29T05:22:44.221Z,99139.75
2022-11-29T05:25:16.827Z,99135.44
2022-11-29T05:28:10.426Z,99139.84
2022-11-29T05:30:48.572Z,99141.50
2022-11-29T05:33:57.405Z,99142.28
2022-11-29T05:36:36.010Z,99148.66
2022-11-29T05:39:20.796Z,99154.81
2022-11-29T05:42:34.529Z,99154.81
2022-11-29T05:45:25.355Z,99156.66
2022-11-29T05:48:18.898Z,99155.75
2022-11-29T05:51:14.897Z,99147.81
2022-11-29T05:53:55.017Z,99157.72
2022-11-29T05:56:48.660Z,99159.19
2022-11-29T05:59:23.568Z,99171.03
2022-11-29T06:02:02.038Z,99173.56
2022-11-29T06:04:54.810Z,99173.88
2022-11-29T06:07:45.474Z,99183.09
2022-11-29T06:10:18.225Z,99182.59
2022-11-29T06:13:30.658Z,99176.94
2022-11-29T06:16:06.069Z,99183.44
2022-11-29T06:18:59.992Z,99200.78
2022-11-29T06:21:34.017Z,99195.63
2022-11-29T06:24:25.718Z,99202.66
2022-11-29T06:27:02.119Z,99198.19
2022-11-29T06:30:05.751Z,99210.19
2022-11-29T06:32:42.805Z,99207.72
2022-11-29T06:35:12.401Z,99211.31
2022-11-29T06:37:43.354Z,99212.66
2022-11-29T06:40:12.410Z,99212.88
2022-11-29T06:42:38.741Z,99213.19
2022-11-29T06:45:06.129Z,99215.13
2022-11-29T06:47:45.077Z,99218.63
2022-11-29T06:50:34.262Z,99227.09
2022-11-29T06:53:16.721Z,99220.03
2022-11-29T06:55:58.421Z,99230.50
2022-11-29T06:58:40.241Z,99233.03
2022-11-29T07:01:23.390Z,99233.03
2022-11-29T07:04:07.249Z,99235.81
2022-11-29T07:06:34.594Z,99241.56
2022-11-29T07:09:14.197Z,99240.94
2022-11-29T07:11:41.491Z,99245.38
2022-11-29T07:14:08.112Z,99235.06
2022-11-29T07:16:46.277Z,99243.63
2022-11-29T07:19:37.585Z,99246.34
2022-11-29T07:22:33.486Z,99241.19
2022-11-29T07:25:29.049Z,99244.56
2022-11-29T07:28:19.844Z,99252.47
2022-11-29T07:30:56.451Z,99249.78
2022-11-29T07:33:37.840Z,99246.19
2022-11-29T07:36:38.841Z,99246.78
2022-11-29T07:39:23.569Z,99254.41
2022-11-29T07:42:19.276Z,99258.22
2022-11-29T07:45:01.680Z,99256.72
2022-11-29T07:47:32.596Z,99257.56
2022-11-29T07:50:01.864Z,99249.25
2022-11-29T07:52:28.598Z,99261.06
2022-11-29T07:54:55.679Z,99256.94
2022-11-29T07:57:22.182Z,99261.06
2022-11-29T07:59:48.875Z,99268.84
2022-11-29T08:02:15.526Z,99266.88
2022-11-29T08:04:43.397Z,99270.41
2022-11-29T08:07:10.602Z,99264.41
2022-11-29T08:09:37.031Z,99272.88
2022-11-29T08:12:03.742Z,99262.41
2022-11-29T08:14:33.338Z,99271.50
2022-11-29T08:16:59.813Z,99273.31
2022-11-29T08:19:26.306Z,99275.25
2022-11-29T08:21:52.792Z,99280.25
2022-11-29T08:24:19.334Z,99273.53
2022-11-29T08:26:56.290Z,99284.56
2022-11-29T08:29:22.836Z,99287.94
2022-11-29T08:31:53.276Z,99289.28
2022-11-29T08:34:23.736Z,99293.53
2022-11-29T08:36:51.193Z,99292.44
2022-11-29T08:39:17.704Z,99284.56
2022-11-29T08:41:44.128Z,99298.88
2022-11-29T08:44:10.479Z,99286.25
2022-11-29T08:46:36.837Z,99298.81
2022-11-29T08:49:03.446Z,99299.81
2022-11-29T08:51:29.789Z,99280.72
2022-11-29T08:53:56.268Z,99297.06
2022-11-29T08:59:09.292Z,99307.44
2022-11-29T09:01:35.854Z,99302.28
2022-11-29T09:04:02.313Z,99306.97
2022-11-29T09:06:31.846Z,99311.31
2022-11-29T09:08:59.382Z,99311.31
2022-11-29T09:11:27.640Z,99299.28
2022-11-29T09:13:57.282Z,99295.34
2022-11-29T09:16:26.550Z,99313.91
2022-11-29T09:18:53.353Z,99320.91
2022-11-29T09:21:19.753Z,99320.97
2022-11-29T09:23:46.195Z,99332.91
2022-11-29T09:26:18.063Z,99333.53
2022-11-29T09:28:44.708Z,99325.38
2022-11-29T09:31:14.648Z,99336.00
2022-11-29T09:33:41.371Z,99339.78
2022-11-29T09:36:10.584Z,99341.78
2022-11-29T09:38:37.774Z,99327.38
2022-11-29T09:41:31.574Z,99339.25
2022-11-29T09:44:16.522Z,99341.94
2022-11-29T09:47:17.072Z,99350.31
2022-11-29T09:49:59.342Z,99338.88
2022-11-29T09:52:42.864Z,99350.69
2022-11-29T09:55:33.490Z,99351.56
2022-11-29T09:58:01.325Z,99357.09
2022-11-29T10:00:29.466Z,99354.25
2022-11-29T10:03:10.082Z,99356.03
2022-11-29T10:05:50.723Z,99355.09
2022-11-29T10:08:33.465Z,99359.72
2022-11-29T10:11:16.392Z,99365.44
2022-11-29T10:13:48.820Z,99363.81
2022-11-29T10:16:31.137Z,99352.72
2022-11-29T10:19:22.282Z,99360.41
2022-11-29T10:22:03.690Z,99361.38
2022-11-29T10:24:32.666Z,99359.75
2022-11-29T10:26:59.217Z,99357.81
2022-11-29T10:29:26.533Z,99346.69
2022-11-29T10:31:54.386Z,99353.03
2022-11-29T10:34:24.393Z,99346.50
2022-11-29T10:36:56.857Z,99352.97
2022-11-29T10:39:30.821Z,99356.31
2022-11-29T10:42:01.390Z,99352.56
2022-11-29T10:44:28.857Z,99354.19
2022-11-29T10:46:55.973Z,99348.56
2022-11-29T10:49:27.782Z,99365.69
2022-11-29T10:51:54.209Z,99362.19
2022-11-29T10:54:27.731Z,99353.97
2022-11-29T10:56:56.369Z,99364.34
2022-11-29T10:59:26.619Z,99362.84
2022-11-29T11:01:54.078Z,99357.59
2022-11-29T11:04:34.446Z,99359.84
2022-11-29T11:07:04.101Z,99369.34
2022-11-29T11:09:47.417Z,99371.31
2022-11-29T11:12:13.744Z,99367.13
2022-11-29T11:14:41.130Z,99380.63
2022-11-29T11:17:30.966Z,99376.06
2022-11-29T11:20:20.207Z,99370.63
2022-11-29T11:23:03.640Z,99381.31
2022-11-29T11:25:34.597Z,99372.75
2022-11-29T11:28:22.980Z,99372.22
2022-11-29T11:30:52.165Z,99367.25
2022-11-29T11:33:28.436Z,99380.50
2022-11-29T11:36:06.413Z,99374.09
2022-11-29T11:38:39.343Z,99367.94
2022-11-29T11:41:11.984Z,99376.06
2022-11-29T11:43:39.571Z,99372.94
2022-11-29T11:46:08.095Z,99377.13
2022-11-29T11:48:35.181Z,99377.09
2022-11-29T11:51:02.109Z,99382.97
2022-11-29T11:53:34.460Z,99387.34
2022-11-29T11:56:04.659Z,99381.88
2022-11-29T11:58:43.294Z,99382.47
2022-11-29T12:01:12.857Z,99383.41
2022-11-29T12:04:00.843Z,99384.16
2022-11-29T12:06:35.344Z,99391.88
2022-11-29T12:09:42.893Z,99398.50
2022-11-29T12:12:34.422Z,99393.53
2022-11-29T12:15:21.309Z,99405.13
2022-11-29T12:18:06.782Z,99407.81
2022-11-29T12:20:46.592Z,99393.56
2022-11-29T12:23:27.385Z,99401.63
2022-11-29T12:26:01.443Z,99408.44
2022-11-29T12:28:31.700Z,99408.09
2022-11-29T12:31:13.479Z,99406.69
2022-11-29T12:33:59.525Z,99405.25
2022-11-29T12:37:11.131Z,99421.69
2022-11-29T12:39:47.478Z,99422.06
2022-11-29T12:42:42.389Z,99428.63
2022-11-29T12:45:27.718Z,99424.09
2022-11-29T12:48:01.179Z,99427.47
2022-11-29T12:50:51.986Z,99429.84
2022-11-29T12:53:29.927Z,99424.34
2022-11-29T12:56:26.535Z,99420.69
2022-11-29T12:59:03.838Z,99427.63
2022-11-29T13:02:10.270Z,99432.63
2022-11-29T13:04:56.500Z,99424.31
2022-11-29T13:07:58.390Z,99427.94
2022-11-29T13:10:31.160Z,99425.84
2022-11-29T13:13:29.833Z,99425.25
2022-11-29T13:16:08.669Z,99425.09
2022-11-29T13:18:37.773Z,99424.56
2022-11-29T13:21:10.857Z,99433.09
2022-11-29T13:24:07.859Z,99424.66
2022-11-29T13:26:34.794Z,99423.41
2022-11-29T13:29:03.340Z,99430.03
2022-11-29T13:31:30.749Z,99431.47
2022-11-29T13:34:13.748Z,99428.84
2022-11-29T13:37:03.979Z,99426.31
2022-11-29T13:39:50.610Z,99443.19
2022-11-29T13:42:21.454Z,99425.56
2022-11-29T13:45:10.741Z,99425.63
2022-11-29T13:47:58.582Z,99440.75
2022-11-29T13:50:42.505Z,99435.81
2022-11-29T13:53:19.246Z,99433.09
2022-11-29T13:55:47.320Z,99435.88
2022-11-29T13:58:42.889Z,99438.66
2022-11-29T14:01:11.564Z,99432.78
2022-11-29T14:03:40.720Z,99435.88
2022-11-29T14:06:13.415Z,99440.53
2022-11-29T14:09:17.840Z,99450.34
2022-11-29T14:11:42.030Z,99448.75
2022-11-29T14:14:11.194Z,99453.47
2022-11-29T14:16:43.604Z,99449.91
2022-11-29T14:19:09.900Z,99452.13
2022-11-29T14:21:58.793Z,99460.84
2022-11-29T14:24:34.418Z,99454.53
2022-11-29T14:27:06.920Z,99456.53
2022-11-29T14:29:48.579Z,99463.00
2022-11-29T14:32:32.595Z,99458.44
2022-11-29T14:35:29.877Z,99459.47
2022-11-29T14:38:17.191Z,99467.47
2022-11-29T14:40:58.491Z,99458.44
2022-11-29T14:43:35.418Z,99458.53
2022-11-29T14:46:07.755Z,99464.56
2022-11-29T14:48:34.865Z,99466.38
2022-11-29T14:51:10.975Z,99474.69
2022-11-29T14:53:41.234Z,99475.94
2022-11-29T14:56:29.281Z,99476.00
2022-11-29T14:59:33.496Z,99483.34
2022-11-29T15:02:02.549Z,99477.00
2022-11-29T15:04:33.862Z,99476.50
2022-11-29T15:07:01.691Z,99487.69
2022-11-29T15:09:29.955Z,99483.38
2022-11-29T15:12:02.134Z,99494.88
2022-11-29T15:15:11.645Z,99489.25
2022-11-29T15:17:53.183Z,99491.06
2022-11-29T15:20:25.807Z,99495.84
2022-11-29T15:22:55.191Z,99499.34
2022-11-29T15:25:30.130Z,99486.34
2022-11-29T15:27:57.363Z,99496.75
2022-11-29T15:30:39.388Z,99498.66
2022-11-29T15:33:26.028Z,99490.88
2022-11-29T15:36:05.028Z,99497.09
2022-11-29T15:38:42.286Z,99499.50
2022-11-29T15:41:27.143Z,99504.03
2022-11-29T15:43:56.967Z,99506.88
2022-11-29T15:46:28.561Z,99507.56
2022-11-29T15:48:55.614Z,99510.97
2022-11-29T15:51:37.048Z,99507.72
2022-11-29T15:54:13.801Z,99515.28
2022-11-29T15:56:52.082Z,99520.38
2022-11-29T15:59:33.938Z,99522.44
2022-11-29T16:02:09.722Z,99519.31
2022-11-29T16:04:46.322Z,99523.63
2022-11-29T16:07:14.433Z,99526.13
2022-11-29T16:09:44.310Z,99525.34
2022-11-29T16:12:16.273Z,99534.81
2022-11-29T16:14:55.233Z,99537.41
2022-11-29T16:17:26.033Z,99542.59
2022-11-29T16:20:16.005Z,99543.66
2022-11-29T16:22:42.885Z,99548.41
2022-11-29T16:25:18.804Z,99552.97
2022-11-29T16:27:46.246Z,99543.53
2022-11-29T16:30:24.481Z,99555.97
2022-11-29T16:32:55.678Z,99556.09
2022-11-29T16:35:26.257Z,99557.78
2022-11-29T16:37:53.200Z,99554.63
2022-11-29T16:40:25.673Z,99559.84
2022-11-29T16:43:04.369Z,99554.63
2022-11-29T16:45:39.659Z,99552.13
2022-11-29T16:48:30.629Z,99562.47
2022-11-29T16:51:12.270Z,99562.59
2022-11-29T16:53:41.262Z,99569.56
2022-11-29T16:56:12.537Z,99557.50
2022-11-29T16:59:16.966Z,99559.09
2022-11-29T17:01:29.384Z,99566.00
2022-11-29T17:03:58.693Z,99548.81
2022-11-29T17:06:26.949Z,99564.16
2022-11-29T17:08:55.942Z,99554.69
2022-11-29T17:11:22.688Z,99555.66
2022-11-29T17:13:49.883Z,99559.09
2022-11-29T17:16:19.050Z,99558.13
2022-11-29T17:18:45.642Z,99560.00
2022-11-29T17:21:22.850Z,99562.31
2022-11-29T17:23:50.609Z,99563.88
2022-11-29T17:26:17.594Z,99565.00
2022-11-29T17:28:45.673Z,99566.78
2022-11-29T17:31:15.020Z,99554.75
2022-11-29T17:33:41.810Z,99566.94
2022-11-29T17:36:10.848Z,99563.44
2022-11-29T17:38:37.770Z,99576.38
2022-11-29T17:41:08.330Z,99566.94
2022-11-29T17:43:36.134Z,99576.31
2022-11-29T17:46:14.533Z,99578.09
2022-11-29T17:48:41.467Z,99584.25
2022-11-29T17:51:22.815Z,99584.25
2022-11-29T17:53:55.273Z,99577.47
2022-11-29T17:56:24.593Z,99588.63
2022-11-29T17:58:53.257Z,99587.66
2022-11-29T18:01:22.981Z,99590.34
2022-11-29T18:03:52.739Z,99586.78
2022-11-29T18:06:23.150Z,99590.28
2022-11-29T18:08:51.589Z,99591.13
2022-11-29T18:11:23.422Z,99600.69
2022-11-29T18:13:50.203Z,99594.63
2022-11-29T18:16:19.111Z,99596.50
2022-11-29T18:18:46.661Z,99601.38
2022-11-29T18:21:14.287Z,99598.00
2022-11-29T18:23:42.695Z,99597.47
2022-11-29T18:26:14.566Z,99610.34
2022-11-29T18:28:42.504Z,99617.28
2022-11-29T18:31:17.587Z,99604.28
2022-11-29T18:33:46.169Z,99611.34
2022-11-29T18:36:15.542Z,99601.72
2022-11-29T18:38:43.784Z,99619.00
2022-11-29T18:41:15.714Z,99611.16
2022-11-29T18:43:42.618Z,99617.34
2022-11-29T18:46:14.132Z,99620.03
2022-11-29T18:48:41.242Z,99614.88
2022-11-29T18:51:10.616Z,99620.81
2022-11-29T18:53:38.398Z,99619.13
2022-11-29T18:56:11.045Z,99621.69
2022-11-29T18:58:37.640Z,99618.13
2022-11-29T19:01:08.257Z,99615.59
2022-11-29T19:03:43.688Z,99628.75
2022-11-29T19:06:11.529Z,99612.06
2022-11-29T19:08:38.417Z,99617.91
2022-11-29T19:11:06.964Z,99625.84
2022-11-29T19:13:34.119Z,99619.91
2022-11-29T19:16:01.719Z,99627.97
2022-11-29T19:18:28.513Z,99631.34
2022-11-29T19:21:05.765Z,99627.00
2022-11-29T19:23:32.233Z,99619.13
2022-11-29T19:26:07.026Z,99635.59
2022-11-29T19:28:36.680Z,99635.81
2022-11-29T19:31:03.353Z,99626.66
2022-11-29T19:33:29.843Z,99629.88
2022-11-29T19:35:56.231Z,99623.09
2022-11-29T19:38:22.563Z,99631.63
2022-11-29T19:40:49.034Z,99633.41
2022-11-29T19:43:15.424Z,99629.22
2022-11-29T19:45:41.720Z,99634.25
2022-11-29T19:48:08.021Z,99632.56
2022-11-29T19:50:34.682Z,99636.88
2022-11-29T19:53:01.054Z,99638.66
2022-11-29T19:55:27.380Z,99636.16
2022-11-29T19:57:55.481Z,99643.94
2022-11-29T20:00:22.680Z,99640.50
2022-11-29T20:02:49.065Z,99640.34
2022-11-29T20:05:15.772Z,99639.41
2022-11-29T20:07:42.145Z,99639.56
2022-11-29T20:10:09.095Z,99639.56
2022-11-29T20:12:35.661Z,99648.19
2022-11-29T20:15:01.965Z,99640.56
2022-11-29T20:17:28.422Z,99647.94
2022-11-29T20:19:54.908Z,99653.38
2022-11-29T20:22:21.530Z,99657.72
2022-11-29T20:24:47.874Z,99656.97
2022-11-29T20:27:14.291Z,99663.91
2022-11-29T20:29:40.621Z,99651.88
2022-11-29T20:32:06.944Z,99667.38
2022-11-29T20:34:33.875Z,99664.03
2022-11-29T20:37:20.546Z,99667.16
2022-11-29T20:39:52.939Z,99674.38
2022-11-29T20:42:28.404Z,99683.13
2022-11-29T20:44:57.858Z,99683.91
2022-11-29T20:47:27.479Z,99685.69
2022-11-29T20:49:54.699Z,99683.97
2022-11-29T20:52:42.260Z,99683.00
2022-11-29T20:55:08.775Z,99685.63
2022-11-29T20:57:35.262Z,99677.84
2022-11-29T21:00:01.700Z,99680.44
2022-11-29T21:02:28.456Z,99672.81
2022-11-29T21:04:54.887Z,99672.72
2022-11-29T21:07:21.567Z,99671.69
2022-11-29T21:09:47.922Z,99663.78
2022-11-29T21:12:14.880Z,99675.22
2022-11-29T21:14:41.500Z,99668.47
2022-11-29T21:17:08.806Z,99682.44
2022-11-29T21:19:35.643Z,99688.44
2022-11-29T21:22:15.733Z,99676.31
2022-11-29T21:25:01.962Z,99682.28
2022-11-29T21:27:34.266Z,99690.06
2022-11-29T21:30:02.107Z,99679.00
2022-11-29T21:32:28.761Z,99672.81
2022-11-29T21:34:55.607Z,99681.28
2022-11-29T21:37:26.137Z,99668.28
2022-11-29T21:39:53.159Z,99677.06
2022-11-29T21:42:19.749Z,99671.09
2022-11-29T21:44:46.812Z,99674.66
2022-11-29T21:47:13.435Z,99680.66
2022-11-29T21:49:40.173Z,99682.44
2022-11-29T21:52:06.745Z,99681.41
2022-11-29T21:54:33.372Z,99685.88
2022-11-29T21:57:00.429Z,99687.66
2022-11-29T21:59:26.759Z,99675.75
2022-11-29T22:01:53.660Z,99690.47
2022-11-29T22:04:20.474Z,99693.75
2022-11-29T22:06:47.117Z,99693.81
2022-11-29T22:09:13.583Z,99686.88
2022-11-29T22:11:40.262Z,99692.16
2022-11-29T22:14:12.508Z,99692.28
2022-11-29T22:16:43.513Z,99694.91
2022-11-29T22:19:11.030Z,99690.69
2022-11-29T22:21:38.692Z,99694.84
2022-11-29T22:24:05.451Z,99695.78
2022-11-29T22:26:31.835Z,99696.97
2022-11-29T22:28:58.257Z,99680.69
2022-11-29T22:31:24.583Z,99675.56
2022-11-29T22:33:53.947Z,99681.53
2022-11-29T22:36:20.545Z,99680.78
2022-11-29T22:38:46.880Z,99680.69
2022-11-29T22:41:14.411Z,99685.03
2022-11-29T22:43:41.427Z,99683.34
2022-11-29T22:46:10.688Z,99689.50
2022-11-29T22:48:39.134Z,99689.44
2022-11-29T22:51:08.225Z,99692.06
2022-11-29T22:53:35.750Z,99678.31
2022-11-29T22:56:04.010Z,99694.47
2022-11-29T22:58:30.717Z,99677.41
2022-11-29T23:01:10.671Z,99699.78
2022-11-29T23:03:39.574Z,99698.94
2022-11-29T23:06:11.798Z,99698.88
2022-11-29T23:08:39.745Z,99698.59
2022-11-29T23:11:07.550Z,99702.00
2022-11-29T23:13:36.101Z,99697.03
2022-11-29T23:16:05.076Z,99710.88
2022-11-29T23:18:32.308Z,99703.22
2022-11-29T23:21:03.143Z,99719.66
2022-11-29T23:23:30.255Z,99711.81
2022-11-29T23:25:56.949Z,99702.53
2022-11-29T23:28:24.457Z,99707.56
2022-11-29T23:30:51.572Z,99710.94
2022-11-29T23:33:18.049Z,99700.59
2022-11-29T23:35:44.786Z,99707.56
2022-11-29T23:38:11.202Z,99694.81
2022-11-29T23:40:37.523Z,99702.97
2022-11-29T23:43:03.868Z,99710.75
2022-11-29T23:45:30.391Z,99709.00
2022-11-29T23:47:56.870Z,99706.31
2022-11-29T23:50:23.933Z,99691.59
2022-11-29T23:52:54.417Z,99699.38
2022-11-29T23:55:22.128Z,99691.84
2022-11-29T23:57:48.680Z,99706.44
